Time;durP1;ratioP1;P1;durP2;ratioP2;P2;SDS_P1;SDS_P2;PMS_P1;PMS_P2;Temp;Humidity;BMP_temperature;BMP_pressure;BME280_temperature;BME280_humidity;BME280_pressure;Samples;Min_cycle;Max_cycle;Signal;HPM_P1;HPM_P2
2021/05/15 04:02:22;;;;;;;9.23;8.90;;;10.00;99.90;;;;;;6093077;23;20438;-69
2021/05/15 04:04:49;;;;;;;8.83;8.43;;;10.00;99.90;;;;;;4969289;28;21149;-68
2021/05/15 04:07:15;;;;;;;10.17;9.67;;;9.90;99.90;;;;;;4974267;28;20444;-68
2021/05/15 04:09:41;;;;;;;9.80;9.30;;;9.90;99.90;;;;;;4974180;28;20838;-67
2021/05/15 04:12:08;;;;;;;9.70;9.30;;;10.00;99.90;;;;;;4973657;28;20813;-68
2021/05/15 04:14:40;;;;;;;9.67;9.20;;;10.00;99.90;;;;;;4973930;28;20458;-68
2021/05/15 04:17:19;;;;;;;8.97;8.67;;;10.10;99.90;;;;;;4973791;28;20546;-67
2021/05/15 04:19:46;;;;;;;9.60;9.03;;;10.10;99.90;;;;;;4973982;28;20531;-68
2021/05/15 04:22:12;;;;;;;8.67;8.37;;;10.20;99.90;;;;;;4973785;28;20968;-68
2021/05/15 04:24:39;;;;;;;10.33;9.90;;;10.30;99.90;;;;;;4973984;28;20459;-67
2021/05/15 04:27:06;;;;;;;10.30;9.80;;;10.30;99.90;;;;;;4973377;28;20516;-67
2021/05/15 04:29:33;;;;;;;9.00;8.60;;;10.30;99.90;;;;;;4973639;28;20785;-68
2021/05/15 04:32:00;;;;;;;9.30;9.00;;;10.40;99.90;;;;;;4973149;28;20462;-68
2021/05/15 04:34:28;;;;;;;8.87;8.57;;;10.50;99.90;;;;;;4973703;28;20463;-68
2021/05/15 04:36:56;;;;;;;9.90;9.03;;;10.70;99.90;;;;;;4973675;28;20827;-68
2021/05/15 04:39:23;;;;;;;9.70;9.23;;;10.70;99.90;;;;;;4973355;28;20461;-68
2021/05/15 04:41:49;;;;;;;9.63;9.27;;;10.90;99.90;;;;;;4972976;28;20973;-68
2021/05/15 04:44:15;;;;;;;9.30;9.00;;;11.00;99.90;;;;;;4973375;28;20463;-68
2021/05/15 04:46:41;;;;;;;9.30;8.90;;;11.00;99.90;;;;;;4973500;28;20456;-69
2021/05/15 04:49:08;;;;;;;8.60;8.20;;;11.10;99.90;;;;;;4972990;28;20456;-69
2021/05/15 04:51:34;;;;;;;9.97;9.57;;;11.20;99.90;;;;;;4973268;28;20547;-69
2021/05/15 04:54:02;;;;;;;10.20;9.80;;;11.50;99.90;;;;;;4972948;28;20486;-69
2021/05/15 04:56:28;;;;;;;9.60;9.30;;;11.80;99.90;;;;;;4973082;28;20957;-69
2021/05/15 04:58:54;;;;;;;10.00;9.57;;;12.30;99.90;;;;;;4973449;28;20459;-69
2021/05/15 05:01:21;;;;;;;9.83;9.40;;;13.00;99.90;;;;;;4976541;28;20478;-68
2021/05/15 05:03:47;;;;;;;9.20;8.90;;;13.10;99.90;;;;;;5003769;28;20478;-68
2021/05/15 05:06:13;;;;;;;9.67;9.37;;;13.00;99.90;;;;;;5011673;28;20446;-68
2021/05/15 05:08:39;;;;;;;9.20;8.90;;;12.50;99.90;;;;;;5012042;28;20943;-68
2021/05/15 05:11:06;;;;;;;9.93;9.53;;;12.20;99.90;;;;;;5011734;28;20453;-69
2021/05/15 05:13:33;;;;;;;9.10;8.80;;;12.10;99.90;;;;;;5011381;28;21014;-69
2021/05/15 05:15:59;;;;;;;9.60;9.10;;;12.00;99.90;;;;;;5011705;28;20461;-69
2021/05/15 05:18:25;;;;;;;8.97;8.60;;;12.00;99.90;;;;;;5011524;28;20467;-70
2021/05/15 05:20:51;;;;;;;7.80;7.50;;;12.40;99.90;;;;;;5011320;28;20473;-69
2021/05/15 05:23:17;;;;;;;8.60;8.30;;;12.90;99.90;;;;;;5011439;28;20457;-69
2021/05/15 05:25:44;;;;;;;9.07;8.47;;;13.20;99.90;;;;;;5011412;28;20971;-69
2021/05/15 05:28:14;;;;;;;8.80;8.50;;;13.30;99.90;;;;;;5011526;28;20453;-69
2021/05/15 05:30:40;;;;;;;10.00;9.60;;;13.70;99.90;;;;;;5011269;28;20940;-69
2021/05/15 05:33:06;;;;;;;9.13;8.73;;;14.30;99.90;;;;;;5011134;28;20478;-69
2021/05/15 05:35:34;;;;;;;9.70;9.30;;;14.70;99.90;;;;;;5011289;28;20527;-69
2021/05/15 05:38:01;;;;;;;9.70;9.40;;;14.90;99.90;;;;;;5011150;28;20469;-69
2021/05/15 05:40:27;;;;;;;10.23;9.63;;;15.70;99.90;;;;;;5011214;28;20453;-68
2021/05/15 05:42:53;;;;;;;9.43;9.13;;;16.20;99.00;;;;;;5010334;28;20967;-69
2021/05/15 05:45:20;;;;;;;9.80;9.40;;;15.70;99.00;;;;;;5011295;28;20460;-68
2021/05/15 05:47:46;;;;;;;9.43;9.10;;;15.40;99.30;;;;;;5010993;28;20456;-69
2021/05/15 05:50:13;;;;;;;9.40;9.07;;;14.90;99.90;;;;;;5011223;28;20450;-71
2021/05/15 05:52:39;;;;;;;9.87;9.30;;;14.70;99.90;;;;;;5011238;28;20474;-69
2021/05/15 05:55:07;;;;;;;9.37;9.07;;;14.80;99.90;;;;;;5010862;28;20449;-68
2021/05/15 05:57:34;;;;;;;9.50;9.20;;;14.90;99.90;;;;;;5010682;28;20460;-68
2021/05/15 06:00:00;;;;;;;9.27;8.83;;;15.10;99.90;;;;;;5010831;28;20461;-68
2021/05/15 06:02:27;;;;;;;9.10;8.70;;;15.40;99.90;;;;;;5010828;28;20466;-69
2021/05/15 06:04:53;;;;;;;8.30;8.10;;;16.00;98.90;;;;;;5011206;28;20923;-67
2021/05/15 06:07:20;;;;;;;10.37;9.77;;;15.70;98.40;;;;;;5010953;28;20528;-70
2021/05/15 06:09:46;;;;;;;9.03;8.73;;;15.60;98.80;;;;;;5010759;28;20442;-69
2021/05/15 06:12:13;;;;;;;9.10;8.60;;;16.20;98.70;;;;;;5010810;28;20454;-69
2021/05/15 06:14:40;;;;;;;8.47;8.27;;;16.60;97.00;;;;;;5010834;28;20691;-69
2021/05/15 06:17:06;;;;;;;9.07;8.57;;;16.30;96.90;;;;;;5010638;28;20457;-69
2021/05/15 06:19:33;;;;;;;9.27;8.90;;;16.30;96.80;;;;;;5010304;28;20450;-69
2021/05/15 06:22:00;;;;;;;9.30;8.90;;;16.00;97.00;;;;;;5010516;28;20460;-70
2021/05/15 06:24:26;;;;;;;8.47;8.23;;;15.90;97.30;;;;;;5010636;28;20971;-69
2021/05/15 06:26:52;;;;;;;9.00;8.70;;;16.20;97.10;;;;;;5010708;28;20454;-70
2021/05/15 06:29:19;;;;;;;9.03;8.67;;;17.00;95.90;;;;;;5010452;28;21027;-69
2021/05/15 06:31:45;;;;;;;9.07;8.77;;;17.10;95.10;;;;;;5010443;28;20480;-70
2021/05/15 06:34:11;;;;;;;7.50;7.30;;;17.50;94.90;;;;;;5010563;28;20497;-69
2021/05/15 06:36:38;;;;;;;8.80;8.50;;;17.50;94.00;;;;;;5010454;28;20454;-69
2021/05/15 06:39:05;;;;;;;8.70;8.40;;;16.90;94.90;;;;;;5010214;28;20457;-69
2021/05/15 06:41:31;;;;;;;9.07;8.77;;;17.30;94.50;;;;;;5010453;28;20869;-69
2021/05/15 06:43:58;;;;;;;9.30;8.90;;;17.40;94.30;;;;;;5010411;28;20446;-71
2021/05/15 06:46:24;;;;;;;8.83;8.53;;;17.60;94.00;;;;;;5010577;28;20979;-71
2021/05/15 06:48:50;;;;;;;9.50;9.20;;;17.90;93.80;;;;;;5010382;28;20450;-69
2021/05/15 06:51:17;;;;;;;9.00;8.60;;;18.00;93.40;;;;;;5010138;28;20535;-71
2021/05/15 06:53:44;;;;;;;8.60;8.30;;;18.30;92.60;;;;;;5010494;28;20500;-71
2021/05/15 06:56:10;;;;;;;9.50;9.20;;;18.40;93.10;;;;;;5014384;28;20461;-71
2021/05/15 06:58:36;;;;;;;8.90;8.60;;;18.90;92.20;;;;;;5014408;28;20499;-71
2021/05/15 07:01:02;;;;;;;9.80;9.33;;;19.20;92.10;;;;;;5013879;28;20456;-70
2021/05/15 07:03:29;;;;;;;10.80;10.00;;;19.50;90.50;;;;;;5012215;28;20497;-71
2021/05/15 07:05:55;;;;;;;9.27;8.77;;;19.80;90.20;;;;;;5014061;28;20438;-71
2021/05/15 07:08:21;;;;;;;9.97;9.57;;;20.50;89.10;;;;;;5014005;28;20446;-72
2021/05/15 07:10:48;;;;;;;9.60;9.10;;;20.50;86.80;;;;;;5014291;28;20454;-72
2021/05/15 07:13:15;;;;;;;8.90;8.70;;;19.90;86.60;;;;;;5013912;28;20504;-72
2021/05/15 07:15:41;;;;;;;9.17;8.77;;;19.10;89.70;;;;;;5013883;28;20454;-72
2021/05/15 07:18:07;;;;;;;10.00;9.50;;;18.70;90.40;;;;;;5013853;28;20460;-72
2021/05/15 07:20:34;;;;;;;9.03;8.73;;;18.70;90.50;;;;;;5013947;28;22178;-72
2021/05/15 07:23:00;;;;;;;9.60;9.13;;;18.90;90.60;;;;;;5013876;28;20458;-71
2021/05/15 07:25:26;;;;;;;8.80;8.30;;;19.10;90.30;;;;;;5009025;28;20466;-71
2021/05/15 07:27:53;;;;;;;9.70;9.40;;;18.90;90.10;;;;;;5014442;28;20484;-71
2021/05/15 07:30:20;;;;;;;10.00;9.70;;;18.90;90.30;;;;;;5013429;28;20461;-71
2021/05/15 07:32:48;;;;;;;8.83;8.53;;;19.20;90.30;;;;;;5011833;28;20827;-71
2021/05/15 07:35:14;;;;;;;8.90;8.60;;;19.20;89.70;;;;;;5014089;28;20500;-72
2021/05/15 07:37:41;;;;;;;9.10;8.80;;;18.90;90.20;;;;;;5013955;28;20576;-72
2021/05/15 07:40:08;;;;;;;9.23;8.93;;;18.40;90.50;;;;;;5014095;28;20457;-71
2021/05/15 07:42:34;;;;;;;9.50;9.20;;;18.20;91.30;;;;;;5008763;28;20462;-72
2021/05/15 07:45:01;;;;;;;9.13;8.73;;;17.90;91.40;;;;;;5002904;28;20449;-71
2021/05/15 07:47:29;;;;;;;8.10;7.90;;;17.80;91.30;;;;;;5013634;28;20461;-72
2021/05/15 07:49:56;;;;;;;8.40;8.20;;;17.30;92.30;;;;;;5013902;28;20461;-72
2021/05/15 07:52:22;;;;;;;8.90;8.60;;;17.50;91.90;;;;;;5013799;28;20454;-72
2021/05/15 07:54:48;;;;;;;8.70;8.40;;;17.60;91.90;;;;;;5013604;28;20481;-71
2021/05/15 07:57:14;;;;;;;8.10;7.80;;;17.80;91.80;;;;;;5013376;28;20454;-71
2021/05/15 07:59:40;;;;;;;8.00;7.80;;;18.00;91.20;;;;;;5013638;28;20492;-71
2021/05/15 08:02:07;;;;;;;8.27;7.87;;;17.90;91.10;;;;;;5012918;28;21009;-72
2021/05/15 08:04:34;;;;;;;8.43;8.07;;;18.10;91.30;;;;;;5012795;28;20473;-72
2021/05/15 08:07:00;;;;;;;9.00;8.70;;;18.30;90.80;;;;;;5012444;28;20863;-72
2021/05/15 08:09:26;;;;;;;9.23;8.53;;;18.40;90.50;;;;;;4999921;28;20493;-71
2021/05/15 08:11:52;;;;;;;8.37;8.07;;;18.30;90.40;;;;;;4993609;28;20450;-71
2021/05/15 08:14:18;;;;;;;8.13;7.83;;;18.10;90.60;;;;;;4993469;28;20494;-72
2021/05/15 08:16:44;;;;;;;8.10;7.80;;;18.20;91.10;;;;;;4993385;28;20481;-71
2021/05/15 08:19:11;;;;;;;8.90;8.47;;;18.70;90.70;;;;;;4993538;28;20594;-71
2021/05/15 08:21:37;;;;;;;8.30;8.10;;;18.90;90.40;;;;;;4993337;28;20526;-71
2021/05/15 08:24:04;;;;;;;9.00;8.70;;;19.40;89.50;;;;;;4993013;28;20897;-71
2021/05/15 08:26:31;;;;;;;8.83;8.53;;;19.00;88.20;;;;;;4993232;28;20451;-71
2021/05/15 08:28:57;;;;;;;7.80;7.60;;;18.20;89.80;;;;;;4993531;28;20455;-71
2021/05/15 08:31:24;;;;;;;8.30;8.00;;;18.10;90.80;;;;;;4993220;28;20505;-71
2021/05/15 08:33:50;;;;;;;8.43;8.13;;;18.20;90.20;;;;;;4993225;28;20486;-70
2021/05/15 08:36:17;;;;;;;7.60;7.30;;;18.00;90.30;;;;;;4993026;28;20509;-69
2021/05/15 08:38:43;;;;;;;7.40;7.20;;;17.80;91.00;;;;;;4993226;28;20488;-70
2021/05/15 08:41:10;;;;;;;8.40;8.10;;;17.60;91.20;;;;;;5011895;28;20458;-70
2021/05/15 08:43:41;;;;;;;9.20;8.83;;;17.90;90.90;;;;;;5012517;28;20754;-70
2021/05/15 08:46:12;;;;;;;8.90;8.40;;;18.30;90.80;;;;;;5011751;28;20446;-70
2021/05/15 08:48:39;;;;;;;8.57;8.27;;;18.40;90.00;;;;;;5010736;28;20470;-70
2021/05/15 08:51:06;;;;;;;9.37;8.87;;;18.50;90.10;;;;;;5011768;28;20824;-70
2021/05/15 08:53:34;;;;;;;8.90;8.60;;;18.70;89.90;;;;;;5012034;28;20490;-70
2021/05/15 08:56:01;;;;;;;8.50;8.20;;;18.60;89.70;;;;;;5012133;28;20488;-70
2021/05/15 08:58:27;;;;;;;8.57;8.37;;;17.90;89.80;;;;;;5012012;28;20460;-69
2021/05/15 09:00:53;;;;;;;8.73;8.50;;;17.60;90.80;;;;;;5012512;28;20473;-70
2021/05/15 09:03:20;;;;;;;8.10;7.90;;;17.50;91.20;;;;;;5012071;28;20473;-70
2021/05/15 09:05:50;;;;;;;8.63;8.33;;;17.40;91.40;;;;;;5011970;28;20505;-70
2021/05/15 09:08:16;;;;;;;8.10;7.90;;;17.80;91.20;;;;;;5011974;28;20477;-70
2021/05/15 09:10:45;;;;;;;8.67;8.37;;;18.00;91.20;;;;;;5011909;28;20473;-69
2021/05/15 09:13:13;;;;;;;9.23;8.83;;;18.40;90.40;;;;;;5012040;28;20493;-70
2021/05/15 09:15:41;;;;;;;8.17;7.87;;;18.60;90.40;;;;;;5012042;28;20453;-70
2021/05/15 09:18:08;;;;;;;9.00;8.70;;;18.60;89.30;;;;;;5010713;28;20454;-71
2021/05/15 09:20:37;;;;;;;8.60;8.20;;;18.60;89.20;;;;;;5011660;28;20450;-71
2021/05/15 09:23:15;;;;;;;10.00;9.60;;;18.60;88.70;;;;;;5008792;28;20885;-72
2021/05/15 09:25:44;;;;;;;8.57;8.20;;;18.30;89.10;;;;;;4992524;28;20442;-69
2021/05/15 09:28:10;;;;;;;8.10;7.80;;;18.10;90.20;;;;;;4992494;28;20461;-69
2021/05/15 09:30:36;;;;;;;8.90;8.50;;;18.40;89.40;;;;;;4991983;28;20462;-71
2021/05/15 09:33:21;;;;;;;8.80;8.50;;;18.50;88.20;;;;;;4992276;28;20486;-69
2021/05/15 09:35:47;;;;;;;9.70;9.40;;;19.40;88.50;;;;;;4991834;28;20454;-69
2021/05/15 09:38:14;;;;;;;8.00;7.70;;;20.00;84.80;;;;;;4992362;28;20458;-69
2021/05/15 09:40:41;;;;;;;9.83;9.43;;;20.60;84.20;;;;;;4998446;28;20958;-70
2021/05/15 09:43:09;;;;;;;9.83;9.33;;;21.00;82.40;;;;;;5011919;28;20449;-71
2021/05/15 09:45:37;;;;;;;9.43;9.13;;;22.00;80.60;;;;;;5011544;28;20442;-71
2021/05/15 09:48:06;;;;;;;9.80;9.40;;;22.40;77.50;;;;;;5011477;28;20485;-71
2021/05/15 09:50:34;;;;;;;10.20;9.70;;;22.70;76.50;;;;;;5011433;28;20446;-71
2021/05/15 09:53:09;;;;;;;9.40;9.10;;;22.90;75.50;;;;;;5011545;28;20991;-70
2021/05/15 09:55:36;;;;;;;10.30;9.90;;;23.00;74.10;;;;;;5011500;28;20470;-70
2021/05/15 09:58:05;;;;;;;9.60;9.30;;;22.80;73.80;;;;;;5011539;28;20867;-69
2021/05/15 10:00:41;;;;;;;10.30;9.90;;;22.70;72.70;;;;;;5011227;28;20758;-69
2021/05/15 10:03:18;;;;;;;9.70;9.40;;;22.50;73.60;;;;;;5010755;28;20485;-70
2021/05/15 10:05:44;;;;;;;9.33;9.03;;;21.50;74.40;;;;;;5011015;28;20504;-69
2021/05/15 10:08:11;;;;;;;9.00;8.60;;;20.60;76.20;;;;;;5009615;28;20450;-71
2021/05/15 10:10:37;;;;;;;9.77;9.47;;;20.10;78.10;;;;;;5011330;28;20461;-69
2021/05/15 10:13:03;;;;;;;9.43;9.13;;;20.10;78.80;;;;;;5010489;28;20551;-69
2021/05/15 10:15:30;;;;;;;9.10;8.80;;;20.10;79.20;;;;;;5010462;28;20450;-69
2021/05/15 10:17:57;;;;;;;9.20;8.90;;;20.10;80.90;;;;;;5011450;28;20450;-70
2021/05/15 10:20:24;;;;;;;8.50;8.20;;;20.00;81.50;;;;;;5011476;28;20486;-69
2021/05/15 10:22:50;;;;;;;9.07;8.57;;;20.10;80.50;;;;;;5011229;28;20450;-69
2021/05/15 10:25:17;;;;;;;11.60;11.13;;;20.20;81.80;;;;;;5011205;28;20461;-69
2021/05/15 10:27:43;;;;;;;13.00;12.50;;;20.20;89.10;;;;;;5011396;28;20450;-69
2021/05/15 10:30:16;;;;;;;12.70;12.20;;;18.90;91.20;;;;;;5010869;28;20458;-69
2021/05/15 10:32:57;;;;;;;10.77;10.40;;;18.10;94.70;;;;;;5011122;28;20450;-69
2021/05/15 10:35:28;;;;;;;9.40;9.10;;;17.80;93.30;;;;;;5011239;28;20454;-71
2021/05/15 10:38:09;;;;;;;9.40;9.00;;;17.70;93.20;;;;;;5011370;28;20828;-71
2021/05/15 10:40:45;;;;;;;8.90;8.60;;;17.80;92.30;;;;;;5011285;28;20456;-71
2021/05/15 10:43:11;;;;;;;8.97;8.67;;;18.20;92.90;;;;;;5011205;28;20449;-73
2021/05/15 10:45:39;;;;;;;9.30;8.87;;;18.60;91.50;;;;;;5011096;28;20461;-71
2021/05/15 10:48:22;;;;;;;9.10;8.80;;;19.00;92.30;;;;;;5011066;28;20457;-70
2021/05/15 10:50:50;;;;;;;9.60;9.20;;;19.60;88.30;;;;;;5011071;28;21135;-71
2021/05/15 10:53:21;;;;;;;9.80;9.40;;;20.40;87.00;;;;;;5010885;28;20482;-71
2021/05/15 10:56:09;;;;;;;9.13;8.73;;;22.10;81.20;;;;;;5010613;28;20461;-71
2021/05/15 10:58:44;;;;;;;10.53;10.13;;;23.80;74.60;;;;;;5010922;28;20469;-70
2021/05/15 11:01:12;;;;;;;10.53;10.13;;;24.60;69.50;;;;;;5010889;28;20527;-71
2021/05/15 11:03:39;;;;;;;10.40;10.00;;;23.80;66.70;;;;;;5010887;28;20836;-70
2021/05/15 11:06:17;;;;;;;10.47;9.97;;;22.80;68.20;;;;;;5010883;28;20453;-69
2021/05/15 11:08:44;;;;;;;10.53;10.13;;;21.90;75.00;;;;;;5010954;28;20446;-68
2021/05/15 11:11:12;;;;;;;9.67;9.37;;;21.00;83.10;;;;;;5010985;28;20943;-70
2021/05/15 11:13:46;;;;;;;10.27;9.70;;;20.60;84.80;;;;;;5010911;28;20497;-69
2021/05/15 11:16:13;;;;;;;9.53;9.13;;;20.60;82.00;;;;;;5010727;28;20456;-70
2021/05/15 11:18:40;;;;;;;10.13;9.47;;;20.60;84.40;;;;;;5010873;28;20449;-70
2021/05/15 11:21:07;;;;;;;10.20;9.60;;;20.50;81.30;;;;;;5010780;28;20505;-69
2021/05/15 11:23:36;;;;;;;9.87;9.47;;;20.40;80.20;;;;;;5010624;28;20482;-69
2021/05/15 11:26:06;;;;;;;9.90;9.60;;;20.70;80.10;;;;;;5010631;28;20867;-69
2021/05/15 11:28:32;;;;;;;10.27;9.87;;;20.40;78.00;;;;;;5010592;28;20457;-69
2021/05/15 11:31:00;;;;;;;9.70;9.20;;;20.10;77.20;;;;;;5010618;28;20510;-71
2021/05/15 11:33:28;;;;;;;10.23;9.73;;;19.80;78.00;;;;;;5010751;28;20477;-71
2021/05/15 11:35:56;;;;;;;9.17;8.87;;;19.70;80.20;;;;;;5010931;28;20469;-71
2021/05/15 11:38:24;;;;;;;8.90;8.50;;;19.60;80.80;;;;;;5010521;28;20457;-71
2021/05/15 11:40:55;;;;;;;9.90;9.50;;;20.00;79.60;;;;;;5010341;28;20512;-69
2021/05/15 11:43:23;;;;;;;9.73;9.33;;;20.20;76.80;;;;;;5013932;28;20919;-69
2021/05/15 11:45:51;;;;;;;9.37;9.07;;;19.90;74.00;;;;;;5013905;28;20453;-69
2021/05/15 11:48:20;;;;;;;9.17;8.87;;;20.00;75.30;;;;;;5013801;28;20527;-69
2021/05/15 11:50:58;;;;;;;9.27;8.90;;;20.10;72.50;;;;;;5013709;28;20505;-69
2021/05/15 11:53:25;;;;;;;9.10;8.80;;;19.70;74.10;;;;;;5013852;28;20555;-69
2021/05/15 11:55:52;;;;;;;10.07;9.57;;;20.30;72.10;;;;;;5013787;28;20454;-69
2021/05/15 11:58:18;;;;;;;9.23;8.73;;;20.90;70.00;;;;;;5013647;28;20850;-71
2021/05/15 12:00:44;;;;;;;8.97;8.67;;;20.90;69.70;;;;;;5013850;28;20596;-69
2021/05/15 12:03:11;;;;;;;9.60;9.20;;;20.90;69.50;;;;;;5013520;28;20525;-69
2021/05/15 12:05:37;;;;;;;9.80;9.40;;;21.30;68.80;;;;;;5013555;28;20485;-69
2021/05/15 12:08:11;;;;;;;9.20;8.90;;;21.30;68.50;;;;;;5013460;28;20477;-70
2021/05/15 12:10:37;;;;;;;9.60;9.17;;;21.50;68.40;;;;;;5013699;28;20986;-70
2021/05/15 12:13:04;;;;;;;10.27;9.97;;;21.80;67.80;;;;;;5013343;28;20490;-70
2021/05/15 12:15:31;;;;;;;9.40;9.10;;;22.00;67.60;;;;;;5013450;28;20442;-70
2021/05/15 12:17:58;;;;;;;9.60;9.20;;;22.30;66.20;;;;;;5013443;28;20453;-69
2021/05/15 12:20:30;;;;;;;9.50;9.20;;;22.20;66.50;;;;;;5013487;28;20473;-69
2021/05/15 12:23:07;;;;;;;9.80;9.50;;;22.70;66.50;;;;;;5013354;28;20552;-70
2021/05/15 12:25:35;;;;;;;10.13;9.73;;;23.40;63.60;;;;;;5013180;28;20457;-69
2021/05/15 12:28:01;;;;;;;9.67;9.27;;;23.00;62.20;;;;;;5012925;28;20457;-69
2021/05/15 12:30:28;;;;;;;9.73;9.30;;;22.20;64.50;;;;;;5013020;28;20481;-69
2021/05/15 12:33:01;;;;;;;10.10;9.70;;;21.90;65.00;;;;;;5013098;28;20940;-69
2021/05/15 12:35:28;;;;;;;10.53;10.00;;;22.30;64.40;;;;;;5013228;28;20472;-67
2021/05/15 12:37:57;;;;;;;9.77;9.40;;;22.70;63.50;;;;;;5012922;28;20456;-70
2021/05/15 12:40:27;;;;;;;10.30;9.90;;;23.10;62.00;;;;;;5013092;28;20533;-71
2021/05/15 12:42:55;;;;;;;10.03;9.63;;;23.60;61.60;;;;;;5012974;28;20959;-71
2021/05/15 12:45:21;;;;;;;10.10;9.70;;;23.90;59.80;;;;;;5012698;28;20944;-71
2021/05/15 12:47:48;;;;;;;9.93;9.53;;;23.70;59.70;;;;;;5012574;28;20817;-71
2021/05/15 12:50:16;;;;;;;9.90;9.40;;;22.80;60.40;;;;;;5012779;28;20449;-70
2021/05/15 12:52:43;;;;;;;9.83;9.33;;;22.70;59.90;;;;;;5012423;28;20446;-70
2021/05/15 12:55:12;;;;;;;10.40;10.00;;;22.40;60.20;;;;;;5012816;28;20458;-71
2021/05/15 12:57:38;;;;;;;9.53;9.13;;;22.50;61.30;;;;;;5012659;28;20458;-71
2021/05/15 13:00:07;;;;;;;9.20;8.80;;;22.50;62.80;;;;;;5012460;28;20746;-70
2021/05/15 13:02:33;;;;;;;9.07;8.67;;;23.10;60.50;;;;;;5012052;28;20534;-71
2021/05/15 13:05:01;;;;;;;9.97;9.60;;;22.90;60.30;;;;;;5012334;28;20461;-71
2021/05/15 13:07:28;;;;;;;9.33;9.03;;;22.20;60.90;;;;;;5012424;28;20453;-71
2021/05/15 13:09:56;;;;;;;10.23;9.83;;;22.00;62.10;;;;;;5012595;28;20446;-70
2021/05/15 13:12:23;;;;;;;9.43;8.80;;;21.60;62.40;;;;;;5012265;28;20465;-70
2021/05/15 13:14:49;;;;;;;10.33;9.73;;;21.20;63.30;;;;;;5006820;28;20485;-70
2021/05/15 13:17:16;;;;;;;9.67;9.27;;;20.60;64.50;;;;;;5001999;28;20443;-70
2021/05/15 13:19:43;;;;;;;9.80;9.40;;;20.40;64.80;;;;;;5000519;28;20443;-71
2021/05/15 13:22:10;;;;;;;9.60;9.20;;;20.10;65.70;;;;;;5001080;28;20465;-71
2021/05/15 13:24:37;;;;;;;9.40;8.90;;;19.90;67.00;;;;;;5001797;28;20457;-71
2021/05/15 13:27:04;;;;;;;9.77;9.37;;;19.70;67.60;;;;;;5000270;28;20459;-71
2021/05/15 13:29:30;;;;;;;9.80;9.40;;;19.90;67.80;;;;;;5000451;28;20789;-70
2021/05/15 13:31:58;;;;;;;9.93;9.50;;;19.90;68.40;;;;;;5001893;28;20451;-70
2021/05/15 13:34:25;;;;;;;9.00;8.63;;;19.90;68.30;;;;;;5000076;28;20494;-70
2021/05/15 13:36:51;;;;;;;10.53;10.13;;;19.80;68.10;;;;;;5000335;28;20473;-70
2021/05/15 13:39:18;;;;;;;10.10;9.50;;;20.10;71.20;;;;;;5001638;28;20445;-70
2021/05/15 13:41:44;;;;;;;9.30;9.00;;;20.60;72.50;;;;;;5000113;28;21000;-70
2021/05/15 13:44:11;;;;;;;10.30;9.80;;;20.40;72.90;;;;;;5000778;28;20438;-70
2021/05/15 13:46:37;;;;;;;8.60;8.20;;;20.10;75.50;;;;;;5001609;28;20449;-71
2021/05/15 13:49:04;;;;;;;9.13;8.83;;;20.20;75.90;;;;;;5000012;28;20484;-70
2021/05/15 13:51:31;;;;;;;8.57;8.27;;;20.10;73.00;;;;;;5000292;28;20492;-70
2021/05/15 13:53:58;;;;;;;9.10;8.70;;;19.90;72.30;;;;;;4999291;28;20509;-70
2021/05/15 13:56:25;;;;;;;10.10;9.60;;;20.10;70.90;;;;;;5000814;28;20526;-71
2021/05/15 13:58:52;;;;;;;10.07;9.50;;;20.50;68.90;;;;;;5001297;28;20446;-70
2021/05/15 14:01:18;;;;;;;9.80;9.40;;;21.00;67.70;;;;;;4999290;28;20477;-71
2021/05/15 14:03:45;;;;;;;10.07;9.73;;;21.50;66.10;;;;;;4999545;28;20473;-70
2021/05/15 14:06:11;;;;;;;9.93;9.60;;;22.00;65.10;;;;;;5001278;28;20699;-70
2021/05/15 14:08:39;;;;;;;10.07;9.47;;;22.10;63.30;;;;;;4999319;28;20994;-70
2021/05/15 14:11:06;;;;;;;9.67;9.27;;;22.40;64.20;;;;;;5000252;28;20445;-70
2021/05/15 14:13:32;;;;;;;10.57;10.10;;;22.50;64.30;;;;;;5001001;28;20513;-69
2021/05/15 14:15:59;;;;;;;9.87;9.57;;;22.60;64.70;;;;;;4999424;28;20439;-70
2021/05/15 14:18:25;;;;;;;9.87;9.50;;;22.90;63.80;;;;;;5000226;28;20446;-70
2021/05/15 14:20:51;;;;;;;10.23;9.83;;;23.90;61.70;;;;;;5000906;28;20443;-70
2021/05/15 14:23:18;;;;;;;9.63;9.27;;;23.50;59.40;;;;;;4999230;28;20443;-69
2021/05/15 14:25:48;;;;;;;9.80;9.30;;;21.80;63.20;;;;;;5000043;28;20445;-70
2021/05/15 14:28:15;;;;;;;9.07;8.77;;;21.50;65.00;;;;;;5000957;28;20525;-70
2021/05/15 14:30:41;;;;;;;10.33;9.83;;;21.10;65.30;;;;;;4999486;28;20938;-71
2021/05/15 14:33:08;;;;;;;9.53;9.23;;;20.40;67.00;;;;;;4999802;28;20454;-71
2021/05/15 14:35:36;;;;;;;9.23;8.80;;;20.30;69.40;;;;;;5000980;28;20488;-71
2021/05/15 14:38:04;;;;;;;10.40;10.00;;;20.80;68.80;;;;;;4999448;28;20446;-71
2021/05/15 14:40:30;;;;;;;10.23;9.83;;;21.00;67.30;;;;;;4999419;28;20438;-70
2021/05/15 14:42:57;;;;;;;9.90;9.50;;;21.30;67.40;;;;;;5001053;28;20446;-70
2021/05/15 14:45:24;;;;;;;10.30;10.00;;;21.60;66.50;;;;;;4999541;28;20786;-70
2021/05/15 14:47:50;;;;;;;10.30;9.80;;;21.40;65.70;;;;;;4999440;28;20970;-71
2021/05/15 14:50:16;;;;;;;11.20;10.70;;;21.20;67.50;;;;;;5000891;28;20438;-71
2021/05/15 14:52:42;;;;;;;10.53;9.80;;;21.10;67.30;;;;;;4999446;28;20505;-70
2021/05/15 14:55:09;;;;;;;9.20;8.80;;;20.70;67.10;;;;;;4999287;28;20481;-69
2021/05/15 14:57:36;;;;;;;8.33;8.07;;;20.40;67.90;;;;;;4991200;28;20450;-71
2021/05/15 15:00:07;;;;;;;9.00;8.70;;;20.30;69.60;;;;;;4991232;28;20591;-70
2021/05/15 15:02:34;;;;;;;9.03;8.73;;;20.00;70.50;;;;;;4990807;28;20479;-70
2021/05/15 15:05:00;;;;;;;9.83;9.43;;;19.70;72.00;;;;;;4991098;28;20457;-71
2021/05/15 15:07:28;;;;;;;9.07;8.77;;;19.60;72.20;;;;;;4991178;28;20451;-71
2021/05/15 15:09:54;;;;;;;8.97;8.57;;;19.60;72.60;;;;;;4991206;28;20461;-70
2021/05/15 15:12:21;;;;;;;9.83;9.40;;;19.60;73.00;;;;;;4991014;28;20462;-71
2021/05/15 15:14:47;;;;;;;9.40;8.90;;;19.50;73.10;;;;;;4990967;28;20493;-71
2021/05/15 15:17:14;;;;;;;9.80;9.40;;;19.60;73.50;;;;;;4994901;28;20458;-71
2021/05/15 15:19:40;;;;;;;9.13;8.77;;;19.30;72.70;;;;;;4994882;28;20469;-71
2021/05/15 15:22:07;;;;;;;10.00;9.50;;;19.10;73.50;;;;;;4995042;28;20515;-71
2021/05/15 15:24:33;;;;;;;9.20;8.90;;;18.90;74.50;;;;;;4994886;28;20443;-72
2021/05/15 15:27:00;;;;;;;10.30;9.70;;;18.70;75.50;;;;;;4994765;28;20470;-70
2021/05/15 15:29:26;;;;;;;10.33;9.70;;;18.60;76.50;;;;;;4995067;28;20462;-71
2021/05/15 15:31:52;;;;;;;9.97;9.50;;;18.30;77.30;;;;;;4994660;28;20454;-70
2021/05/15 15:34:20;;;;;;;9.60;9.00;;;17.90;78.50;;;;;;5001409;28;20484;-70
2021/05/15 15:36:46;;;;;;;9.63;9.23;;;17.90;79.70;;;;;;5004134;28;20445;-69
2021/05/15 15:39:13;;;;;;;10.30;9.80;;;17.50;81.90;;;;;;5002475;28;20964;-69
2021/05/15 15:41:40;;;;;;;9.03;8.53;;;17.40;84.20;;;;;;5002948;28;20454;-69
2021/05/15 15:44:06;;;;;;;9.00;8.60;;;17.30;85.50;;;;;;5003858;28;21176;-69
2021/05/15 15:46:33;;;;;;;8.97;8.67;;;16.90;88.00;;;;;;5002043;28;20481;-69
2021/05/15 15:49:00;;;;;;;24.67;23.67;;;16.20;92.20;;;;;;5002708;28;20825;-71
2021/05/15 15:51:27;;;;;;;29.37;28.17;;;15.20;98.70;;;;;;5004130;28;21431;-71
2021/05/15 15:53:53;;;;;;;27.80;26.60;;;14.60;99.90;;;;;;5011314;28;20489;-71
2021/05/15 15:56:19;;;;;;;27.77;26.57;;;14.00;99.90;;;;;;5014006;28;20848;-72
2021/05/15 15:58:45;;;;;;;27.40;26.30;;;13.60;99.90;;;;;;5013714;28;20445;-75
2021/05/15 16:01:12;;;;;;;27.53;26.23;;;13.50;99.90;;;;;;5013728;28;20450;-74
2021/05/15 16:03:38;;;;;;;26.30;25.20;;;13.40;99.90;;;;;;5013481;28;20825;-73
2021/05/15 16:06:06;;;;;;;25.20;24.27;;;13.40;99.90;;;;;;5013754;28;20974;-73
2021/05/15 16:08:35;;;;;;;24.87;23.77;;;13.50;99.90;;;;;;5013569;28;20541;-72
2021/05/15 16:11:02;;;;;;;24.33;23.37;;;13.50;99.90;;;;;;5013503;28;20533;-72
2021/05/15 16:13:28;;;;;;;22.77;21.87;;;13.40;99.90;;;;;;5013590;28;20995;-71
2021/05/15 16:15:54;;;;;;;22.00;21.10;;;13.30;99.90;;;;;;5013514;28;20453;-71
2021/05/15 16:18:20;;;;;;;19.40;18.80;;;13.20;99.90;;;;;;5013395;28;20457;-71
2021/05/15 16:20:47;;;;;;;14.07;13.43;;;13.20;99.90;;;;;;5012724;28;20986;-71
2021/05/15 16:23:13;;;;;;;13.53;13.03;;;13.20;99.90;;;;;;5013395;28;20462;-70
2021/05/15 16:25:40;;;;;;;12.30;11.90;;;13.30;99.90;;;;;;5013314;28;20457;-70
2021/05/15 16:28:07;;;;;;;12.80;12.23;;;13.50;99.90;;;;;;5012672;28;20462;-70
2021/05/15 16:30:34;;;;;;;13.47;12.80;;;13.60;99.90;;;;;;5013035;28;20733;-71
2021/05/15 16:33:00;;;;;;;12.47;11.97;;;13.70;99.90;;;;;;5013181;28;20855;-70
2021/05/15 16:35:27;;;;;;;11.73;11.23;;;13.80;99.90;;;;;;5013090;28;20502;-70
2021/05/15 16:37:53;;;;;;;11.70;11.30;;;13.80;99.90;;;;;;5012958;28;20944;-71
2021/05/15 16:40:20;;;;;;;12.10;11.60;;;13.90;99.90;;;;;;5013045;28;20708;-71
2021/05/15 16:42:47;;;;;;;11.73;11.33;;;13.80;99.90;;;;;;5012862;28;20504;-71
2021/05/15 16:45:14;;;;;;;11.90;11.37;;;13.70;99.90;;;;;;5012870;28;20446;-71